Time;durP1;ratioP1;P1;durP2;ratioP2;P2;SDS_P1;SDS_P2;PMS_P1;PMS_P2;Temp;Humidity;BMP_temperature;BMP_pressure;BME280_temperature;BME280_humidity;BME280_pressure;Samples;Min_cycle;Max_cycle;Signal;HPM_P1;HPM_P2
2021/06/10 04:41:29;;;;;;;11.33;9.63;;;;;;;17.17;89.12;99454.64;1694521;82;21699;-44
2021/06/10 04:43:57;;;;;;;10.40;9.33;;;;;;;17.36;89.26;99452.11;1683574;81;21124;-42
2021/06/10 04:46:30;;;;;;;11.43;9.23;;;;;;;17.50;88.48;99448.41;1707452;81;21551;-45
2021/06/10 04:49:59;;;;;;;10.08;9.05;;;;;;;17.59;87.79;99445.86;1731498;78;21127;-40
2021/06/10 04:52:33;;;;;;;19.15;10.18;;;;;;;17.65;87.04;99447.39;1794768;77;21129;-44
2021/06/10 04:55:02;;;;;;;11.05;9.68;;;;;;;17.74;86.46;99443.94;1812835;77;21033;-45
2021/06/10 04:57:33;;;;;;;11.65;9.03;;;;;;;17.79;86.00;99445.03;1748056;77;21098;-44
2021/06/10 05:00:07;;;;;;;10.30;8.65;;;;;;;17.87;86.11;99444.73;1753993;80;21044;-39
2021/06/10 05:05:21;;;;;;;10.78;9.20;;;;;;;17.93;85.61;99444.46;1762171;78;21645;-45
2021/06/10 05:07:50;;;;;;;11.57;9.50;;;;;;;17.97;85.89;99437.63;1770005;78;21085;-40
2021/06/10 05:10:20;;;;;;;15.85;9.48;;;;;;;18.05;84.99;99439.95;1792901;77;21042;-39
2021/06/10 05:12:47;;;;;;;13.35;9.75;;;;;;;18.14;84.58;99442.64;1801008;77;21058;-45
2021/06/10 05:15:18;;;;;;;12.15;8.93;;;;;;;18.22;83.98;99445.36;1823646;76;21089;-45
2021/06/10 05:20:18;;;;;;;11.68;9.60;;;;;;;18.50;83.26;99449.42;1686152;81;21125;-39
2021/06/10 05:23:31;;;;;;;12.37;8.83;;;;;;;18.69;83.27;99446.80;1737726;80;21133;-41
2021/06/10 05:26:00;;;;;;;12.15;8.88;;;;;;;18.86;83.11;99454.35;1799754;76;21049;-40
2021/06/10 05:28:46;;;;;;;9.43;8.15;;;;;;;19.02;81.35;99449.66;1783212;78;21172;-40
2021/06/10 05:31:16;;;;;;;13.48;9.10;;;;;;;19.11;80.78;99443.90;1747540;80;21098;-45
2021/06/10 05:33:44;;;;;;;11.43;8.83;;;;;;;19.22;79.38;99445.56;1769028;79;21049;-45
2021/06/10 05:39:00;;;;;;;11.22;8.83;;;;;;;19.37;78.85;99445.30;1735057;80;21068;-39
2021/06/10 05:41:47;;;;;;;12.00;8.93;;;;;;;19.38;77.77;99445.20;1754510;75;21279;-40
2021/06/10 05:44:40;;;;;;;17.93;9.70;;;;;;;19.40;77.79;99432.72;1770368;78;21707;-46
2021/06/10 05:50:54;;;;;;;10.78;8.60;;;;;;;19.63;79.33;99440.88;1800000;76;21077;-40
2021/06/10 05:53:45;;;;;;;13.30;8.45;;;;;;;19.81;78.07;99435.11;1734020;79;21051;-40
2021/06/10 05:56:31;;;;;;;9.40;8.08;;;;;;;19.83;78.28;99435.91;1734957;79;21091;-40
2021/06/10 06:02:50;;;;;;;15.18;9.63;;;;;;;19.92;78.03;99440.72;1728576;77;21713;-40
2021/06/10 06:05:17;;;;;;;12.40;9.05;;;;;;;19.96;77.07;99444.08;1696037;81;21137;-46
2021/06/10 06:08:07;;;;;;;11.00;8.75;;;;;;;20.00;77.36;99438.98;1628475;84;21145;-46
2021/06/10 06:20:23;;;;;;;10.85;8.63;;;;;;;20.29;75.54;99434.79;1703669;78;21862;-40
2021/06/10 06:23:41;;;;;;;9.33;7.80;;;;;;;20.28;75.76;99437.06;1651248;84;21148;-42
2021/06/10 06:26:12;;;;;;;9.58;8.53;;;;;;;20.28;76.28;99431.75;1632664;85;21206;-47
2021/06/10 06:29:08;;;;;;;10.55;8.23;;;;;;;20.23;75.07;99432.94;1635333;85;22314;-47
2021/06/10 06:31:41;;;;;;;18.27;9.85;;;;;;;20.13;75.61;99434.77;1662656;83;21476;-44
2021/06/10 06:34:08;;;;;;;14.28;9.15;;;;;;;20.14;75.92;99435.63;1609143;85;21542;-41
2021/06/10 06:36:57;;;;;;;11.63;8.38;;;;;;;20.18;76.20;99431.88;1639488;85;21210;-46
2021/06/10 07:07:24;;;;;;;7.80;6.00;;;;;;;21.15;75.29;99446.91;1774392;78;21628;-44
2021/06/10 07:12:20;;;;;;;7.62;6.85;;;;;;;21.37;71.36;99449.23;1695336;82;21064;-45
2021/06/10 08:10:36;;;;;;;6.85;4.00;;;;;;;22.98;60.96;99418.98;1722504;82;21093;-43
2021/06/10 08:16:36;;;;;;;7.50;4.17;;;;;;;22.68;63.15;99405.80;1760302;79;21201;-46
2021/06/10 08:22:44;;;;;;;8.53;4.65;;;;;;;22.63;59.63;99406.56;1705428;81;21155;-40
2021/06/10 08:25:24;;;;;;;6.62;3.90;;;;;;;22.53;61.23;99401.42;1683335;82;21524;-45
2021/06/10 08:29:45;;;;;;;5.28;3.15;;;;;;;22.60;60.99;99408.07;1793348;79;25366;-38
2021/06/10 08:32:28;;;;;;;3.10;2.80;;;;;;;22.65;60.28;99409.97;1722463;80;21334;-43
2021/06/10 08:34:55;;;;;;;2.85;2.62;;;;;;;22.82;57.53;99401.75;1735279;80;20996;-39
2021/06/10 08:37:22;;;;;;;2.52;2.33;;;;;;;23.04;56.92;99408.40;1739918;82;21339;-38
2021/06/10 10:47:08;;;;;;;9.43;6.28;;;;;;;16.93;89.04;99448.98;1646443;85;21092;-38
2021/06/10 10:49:48;;;;;;;10.32;7.17;;;;;;;16.98;89.89;99441.28;1637391;86;21085;-43
2021/06/10 10:52:34;;;;;;;9.60;7.70;;;;;;;17.05;90.53;99434.00;1623287;88;21147;-39
2021/06/10 10:54:55;;;;;;;10.95;6.10;;;;;;;17.13;91.22;99429.72;1650833;87;21116;-39
2021/06/10 10:57:38;;;;;;;10.80;7.55;;;;;;;17.21;92.13;99427.14;1637338;86;21668;-39
2021/06/10 11:00:08;;;;;;;12.30;7.92;;;;;;;17.27;93.23;99427.36;1629188;87;21104;-38
2021/06/10 11:02:41;;;;;;;11.43;8.08;;;;;;;17.33;93.49;99425.78;1645507;86;21088;-39
2021/06/10 11:05:09;;;;;;;12.40;8.98;;;;;;;17.37;93.69;99430.02;1619833;86;21115;-39
2021/06/10 11:07:43;;;;;;;9.35;7.65;;;;;;;17.43;93.99;99440.81;1617290;87;21101;-42
2021/06/10 11:10:15;;;;;;;13.10;8.55;;;;;;;17.48;94.42;99438.84;1645450;87;21077;-39
2021/06/10 11:12:54;;;;;;;13.53;7.83;;;;;;;17.52;94.57;99449.70;1623924;87;21600;-44
2021/06/10 11:19:22;;;;;;;13.43;7.90;;;;;;;17.59;94.77;99467.48;1577684;90;21121;-39
